Terminal Aerodrome Forecast
Issued by NWS

Home | Current Version | Previous Version | Text Only | Print | Product List | Glossary On
Versions: 1 2 3 4 5 6 7 8 9 10 11 12 13 14 15
000
FTUS44 KOHX 231900 AAB
TAFCKV
TAF AMD
KCKV 231917Z 2319/2418 24007KT P6SM VCSH FEW035 SCT080
     FM232200 28007KT P6SM BKN050
     FM240200 32006KT P6SM VCTS SCT025 BKN035CB=

USA.gov is the U.S. government's official web portal to all federal, state and local government web resources and services.